sensor_id;sensor_type;location;lat;lon;timestamp;P1;durP1;ratioP1;P2;durP2;ratioP2
71048;SDS011;58704;53.358;-6.238;2023-12-20T00:00:34;13.77;;;2.95;;
71048;SDS011;58704;53.358;-6.238;2023-12-20T00:02:59;19.63;;;3.17;;
71048;SDS011;58704;53.358;-6.238;2023-12-20T00:05:25;21.40;;;2.93;;
71048;SDS011;58704;53.358;-6.238;2023-12-20T00:07:50;16.23;;;2.27;;
71048;SDS011;58704;53.358;-6.238;2023-12-20T00:10:15;14.33;;;2.57;;
71048;SDS011;58704;53.358;-6.238;2023-12-20T00:12:41;20.90;;;3.37;;
71048;SDS011;58704;53.358;-6.238;2023-12-20T00:15:06;16.93;;;2.47;;
71048;SDS011;58704;53.358;-6.238;2023-12-20T00:17:31;11.20;;;2.80;;
71048;SDS011;58704;53.358;-6.238;2023-12-20T00:19:57;20.67;;;2.90;;
71048;SDS011;58704;53.358;-6.238;2023-12-20T00:22:22;15.97;;;2.67;;
71048;SDS011;58704;53.358;-6.238;2023-12-20T00:24:47;16.63;;;2.67;;
71048;SDS011;58704;53.358;-6.238;2023-12-20T00:27:12;19.90;;;2.70;;
71048;SDS011;58704;53.358;-6.238;2023-12-20T00:29:38;17.73;;;2.60;;
71048;SDS011;58704;53.358;-6.238;2023-12-20T00:32:03;13.47;;;3.10;;
71048;SDS011;58704;53.358;-6.238;2023-12-20T00:34:29;14.93;;;2.35;;
71048;SDS011;58704;53.358;-6.238;2023-12-20T00:36:54;19.93;;;3.20;;
71048;SDS011;58704;53.358;-6.238;2023-12-20T00:39:20;14.67;;;2.67;;
71048;SDS011;58704;53.358;-6.238;2023-12-20T00:41:45;16.70;;;3.17;;
71048;SDS011;58704;53.358;-6.238;2023-12-20T00:44:10;16.73;;;3.10;;
71048;SDS011;58704;53.358;-6.238;2023-12-20T00:46:36;14.40;;;3.45;;
71048;SDS011;58704;53.358;-6.238;2023-12-20T00:49:01;15.10;;;2.13;;
71048;SDS011;58704;53.358;-6.238;2023-12-20T00:51:26;13.00;;;2.07;;
71048;SDS011;58704;53.358;-6.238;2023-12-20T00:53:52;26.83;;;2.90;;
71048;SDS011;58704;53.358;-6.238;2023-12-20T00:56:21;12.63;;;2.58;;
71048;SDS011;58704;53.358;-6.238;2023-12-20T00:58:46;18.90;;;3.05;;
71048;SDS011;58704;53.358;-6.238;2023-12-20T01:01:11;15.80;;;3.20;;
71048;SDS011;58704;53.358;-6.238;2023-12-20T01:03:38;15.10;;;2.95;;
71048;SDS011;58704;53.358;-6.238;2023-12-20T01:06:03;17.37;;;2.33;;
71048;SDS011;58704;53.358;-6.238;2023-12-20T01:08:29;11.00;;;2.47;;
71048;SDS011;58704;53.358;-6.238;2023-12-20T01:10:55;13.53;;;2.87;;
71048;SDS011;58704;53.358;-6.238;2023-12-20T01:13:20;14.57;;;2.83;;
71048;SDS011;58704;53.358;-6.238;2023-12-20T01:15:45;9.37;;;1.73;;
71048;SDS011;58704;53.358;-6.238;2023-12-20T01:18:12;17.20;;;2.33;;
71048;SDS011;58704;53.358;-6.238;2023-12-20T01:20:37;10.07;;;2.13;;
71048;SDS011;58704;53.358;-6.238;2023-12-20T01:23:02;15.70;;;2.40;;
71048;SDS011;58704;53.358;-6.238;2023-12-20T01:25:31;19.90;;;2.47;;
71048;SDS011;58704;53.358;-6.238;2023-12-20T01:27:56;15.18;;;2.75;;
71048;SDS011;58704;53.358;-6.238;2023-12-20T01:30:21;16.33;;;2.30;;
71048;SDS011;58704;53.358;-6.238;2023-12-20T01:32:46;14.00;;;1.90;;
71048;SDS011;58704;53.358;-6.238;2023-12-20T01:35:12;16.57;;;2.57;;
71048;SDS011;58704;53.358;-6.238;2023-12-20T01:37:38;17.83;;;2.57;;
71048;SDS011;58704;53.358;-6.238;2023-12-20T01:40:03;16.30;;;2.37;;
71048;SDS011;58704;53.358;-6.238;2023-12-20T01:42:29;10.10;;;2.20;;
71048;SDS011;58704;53.358;-6.238;2023-12-20T01:44:54;11.73;;;1.80;;
71048;SDS011;58704;53.358;-6.238;2023-12-20T01:47:19;12.57;;;2.17;;
71048;SDS011;58704;53.358;-6.238;2023-12-20T01:49:45;14.43;;;2.50;;
71048;SDS011;58704;53.358;-6.238;2023-12-20T01:52:10;19.30;;;3.40;;
71048;SDS011;58704;53.358;-6.238;2023-12-20T01:54:36;11.83;;;2.03;;
71048;SDS011;58704;53.358;-6.238;2023-12-20T01:57:01;13.07;;;2.30;;
71048;SDS011;58704;53.358;-6.238;2023-12-20T01:59:27;14.07;;;2.30;;
71048;SDS011;58704;53.358;-6.238;2023-12-20T02:01:53;19.88;;;2.13;;
71048;SDS011;58704;53.358;-6.238;2023-12-20T02:04:19;23.93;;;3.77;;
71048;SDS011;58704;53.358;-6.238;2023-12-20T02:06:44;18.00;;;2.55;;
71048;SDS011;58704;53.358;-6.238;2023-12-20T02:09:11;10.70;;;2.07;;
71048;SDS011;58704;53.358;-6.238;2023-12-20T02:11:36;14.18;;;1.95;;
71048;SDS011;58704;53.358;-6.238;2023-12-20T02:14:03;14.63;;;1.52;;
71048;SDS011;58704;53.358;-6.238;2023-12-20T02:16:28;9.40;;;1.53;;
71048;SDS011;58704;53.358;-6.238;2023-12-20T02:18:53;14.77;;;1.73;;
71048;SDS011;58704;53.358;-6.238;2023-12-20T02:21:23;12.57;;;2.60;;
71048;SDS011;58704;53.358;-6.238;2023-12-20T02:23:49;16.00;;;2.35;;
71048;SDS011;58704;53.358;-6.238;2023-12-20T02:26:14;11.10;;;1.77;;
71048;SDS011;58704;53.358;-6.238;2023-12-20T02:28:40;15.93;;;2.33;;
71048;SDS011;58704;53.358;-6.238;2023-12-20T02:31:05;15.48;;;2.65;;
71048;SDS011;58704;53.358;-6.238;2023-12-20T02:33:30;13.13;;;2.20;;
71048;SDS011;58704;53.358;-6.238;2023-12-20T02:35:55;12.77;;;2.07;;
71048;SDS011;58704;53.358;-6.238;2023-12-20T02:38:21;10.23;;;1.47;;
71048;SDS011;58704;53.358;-6.238;2023-12-20T02:40:46;10.57;;;1.60;;
71048;SDS011;58704;53.358;-6.238;2023-12-20T02:43:11;11.83;;;1.63;;
71048;SDS011;58704;53.358;-6.238;2023-12-20T02:45:37;9.33;;;1.53;;
71048;SDS011;58704;53.358;-6.238;2023-12-20T02:48:02;11.00;;;1.60;;
71048;SDS011;58704;53.358;-6.238;2023-12-20T02:50:27;8.23;;;1.37;;
71048;SDS011;58704;53.358;-6.238;2023-12-20T02:52:52;9.77;;;2.17;;
71048;SDS011;58704;53.358;-6.238;2023-12-20T02:55:18;13.60;;;1.87;;
71048;SDS011;58704;53.358;-6.238;2023-12-20T02:57:43;6.50;;;1.40;;
71048;SDS011;58704;53.358;-6.238;2023-12-20T03:00:09;8.90;;;1.13;;
71048;SDS011;58704;53.358;-6.238;2023-12-20T03:02:35;12.23;;;1.57;;
71048;SDS011;58704;53.358;-6.238;2023-12-20T03:05:01;6.93;;;1.20;;
71048;SDS011;58704;53.358;-6.238;2023-12-20T03:07:26;7.37;;;1.60;;
71048;SDS011;58704;53.358;-6.238;2023-12-20T03:09:51;6.60;;;1.40;;
71048;SDS011;58704;53.358;-6.238;2023-12-20T03:12:17;14.97;;;1.80;;
71048;SDS011;58704;53.358;-6.238;2023-12-20T03:14:43;9.00;;;1.23;;
71048;SDS011;58704;53.358;-6.238;2023-12-20T03:17:08;5.18;;;0.85;;
71048;SDS011;58704;53.358;-6.238;2023-12-20T03:19:33;12.53;;;1.90;;
71048;SDS011;58704;53.358;-6.238;2023-12-20T03:21:59;6.83;;;0.97;;
71048;SDS011;58704;53.358;-6.238;2023-12-20T03:24:26;8.70;;;1.38;;
71048;SDS011;58704;53.358;-6.238;2023-12-20T03:26:51;8.93;;;1.93;;
71048;SDS011;58704;53.358;-6.238;2023-12-20T03:29:16;10.37;;;1.30;;
71048;SDS011;58704;53.358;-6.238;2023-12-20T03:31:41;8.03;;;1.40;;
71048;SDS011;58704;53.358;-6.238;2023-12-20T03:34:07;8.80;;;1.40;;
71048;SDS011;58704;53.358;-6.238;2023-12-20T03:36:32;7.97;;;1.85;;
71048;SDS011;58704;53.358;-6.238;2023-12-20T03:38:57;9.30;;;1.20;;
71048;SDS011;58704;53.358;-6.238;2023-12-20T03:41:22;8.87;;;1.60;;
71048;SDS011;58704;53.358;-6.238;2023-12-20T03:43:48;11.50;;;1.60;;
71048;SDS011;58704;53.358;-6.238;2023-12-20T03:46:13;9.37;;;1.50;;
71048;SDS011;58704;53.358;-6.238;2023-12-20T03:48:38;8.87;;;1.90;;
71048;SDS011;58704;53.358;-6.238;2023-12-20T03:51:03;8.70;;;1.40;;
71048;SDS011;58704;53.358;-6.238;2023-12-20T03:53:28;6.77;;;1.30;;
71048;SDS011;58704;53.358;-6.238;2023-12-20T03:55:54;9.33;;;1.57;;
71048;SDS011;58704;53.358;-6.238;2023-12-20T03:58:19;9.37;;;1.43;;
71048;SDS011;58704;53.358;-6.238;2023-12-20T04:00:44;5.30;;;1.07;;
71048;SDS011;58704;53.358;-6.238;2023-12-20T04:03:09;8.30;;;1.37;;
71048;SDS011;58704;53.358;-6.238;2023-12-20T04:05:37;9.15;;;1.30;;
71048;SDS011;58704;53.358;-6.238;2023-12-20T04:08:03;12.37;;;1.60;;
71048;SDS011;58704;53.358;-6.238;2023-12-20T04:10:29;6.20;;;1.15;;
71048;SDS011;58704;53.358;-6.238;2023-12-20T04:12:54;7.50;;;1.20;;
71048;SDS011;58704;53.358;-6.238;2023-12-20T04:15:20;10.43;;;1.30;;
71048;SDS011;58704;53.358;-6.238;2023-12-20T04:17:45;7.70;;;1.47;;
71048;SDS011;58704;53.358;-6.238;2023-12-20T04:20:10;8.53;;;1.30;;
71048;SDS011;58704;53.358;-6.238;2023-12-20T04:22:36;5.40;;;0.88;;
71048;SDS011;58704;53.358;-6.238;2023-12-20T04:25:01;5.53;;;1.30;;
71048;SDS011;58704;53.358;-6.238;2023-12-20T04:27:27;8.30;;;1.67;;
71048;SDS011;58704;53.358;-6.238;2023-12-20T04:29:52;4.03;;;1.27;;
71048;SDS011;58704;53.358;-6.238;2023-12-20T04:32:17;7.43;;;1.10;;
71048;SDS011;58704;53.358;-6.238;2023-12-20T04:34:42;8.13;;;1.40;;
71048;SDS011;58704;53.358;-6.238;2023-12-20T04:37:08;12.27;;;1.70;;
71048;SDS011;58704;53.358;-6.238;2023-12-20T04:39:33;7.53;;;1.43;;
71048;SDS011;58704;53.358;-6.238;2023-12-20T04:41:58;7.40;;;1.27;;
71048;SDS011;58704;53.358;-6.238;2023-12-20T04:44:23;9.33;;;1.43;;
71048;SDS011;58704;53.358;-6.238;2023-12-20T04:46:51;9.48;;;1.52;;
71048;SDS011;58704;53.358;-6.238;2023-12-20T04:49:16;9.50;;;1.83;;
71048;SDS011;58704;53.358;-6.238;2023-12-20T04:51:42;7.03;;;1.40;;
71048;SDS011;58704;53.358;-6.238;2023-12-20T04:54:07;7.20;;;1.30;;
71048;SDS011;58704;53.358;-6.238;2023-12-20T04:56:32;8.33;;;1.20;;
71048;SDS011;58704;53.358;-6.238;2023-12-20T04:58:57;12.43;;;1.57;;
71048;SDS011;58704;53.358;-6.238;2023-12-20T05:01:23;7.97;;;1.33;;
71048;SDS011;58704;53.358;-6.238;2023-12-20T05:03:48;9.23;;;1.70;;
71048;SDS011;58704;53.358;-6.238;2023-12-20T05:06:13;6.70;;;1.43;;
71048;SDS011;58704;53.358;-6.238;2023-12-20T05:08:39;5.25;;;1.00;;
71048;SDS011;58704;53.358;-6.238;2023-12-20T05:11:05;4.63;;;1.75;;
71048;SDS011;58704;53.358;-6.238;2023-12-20T05:13:31;6.00;;;1.20;;
71048;SDS011;58704;53.358;-6.238;2023-12-20T05:15:56;10.27;;;1.27;;
71048;SDS011;58704;53.358;-6.238;2023-12-20T05:18:22;6.07;;;1.20;;
71048;SDS011;58704;53.358;-6.238;2023-12-20T05:20:48;6.30;;;1.10;;
71048;SDS011;58704;53.358;-6.238;2023-12-20T05:23:13;11.00;;;1.75;;
71048;SDS011;58704;53.358;-6.238;2023-12-20T05:25:39;7.73;;;1.20;;
71048;SDS011;58704;53.358;-6.238;2023-12-20T05:28:04;5.27;;;1.00;;
71048;SDS011;58704;53.358;-6.238;2023-12-20T05:30:29;9.63;;;1.33;;
71048;SDS011;58704;53.358;-6.238;2023-12-20T05:32:55;10.30;;;1.30;;
71048;SDS011;58704;53.358;-6.238;2023-12-20T05:35:20;14.10;;;1.43;;
71048;SDS011;58704;53.358;-6.238;2023-12-20T05:37:47;10.40;;;1.88;;
71048;SDS011;58704;53.358;-6.238;2023-12-20T05:40:12;8.60;;;1.07;;
71048;SDS011;58704;53.358;-6.238;2023-12-20T05:42:37;8.00;;;1.30;;
71048;SDS011;58704;53.358;-6.238;2023-12-20T05:45:03;5.47;;;1.03;;
71048;SDS011;58704;53.358;-6.238;2023-12-20T05:47:28;6.05;;;1.10;;
71048;SDS011;58704;53.358;-6.238;2023-12-20T05:49:54;5.90;;;1.00;;
71048;SDS011;58704;53.358;-6.238;2023-12-20T05:52:19;8.53;;;1.20;;
71048;SDS011;58704;53.358;-6.238;2023-12-20T05:54:44;5.40;;;1.50;;
71048;SDS011;58704;53.358;-6.238;2023-12-20T05:57:09;10.43;;;1.57;;
71048;SDS011;58704;53.358;-6.238;2023-12-20T05:59:35;6.13;;;1.10;;
71048;SDS011;58704;53.358;-6.238;2023-12-20T06:02:00;12.83;;;1.53;;
71048;SDS011;58704;53.358;-6.238;2023-12-20T06:04:25;6.70;;;1.30;;
71048;SDS011;58704;53.358;-6.238;2023-12-20T06:06:50;10.13;;;1.90;;
71048;SDS011;58704;53.358;-6.238;2023-12-20T06:09:16;10.03;;;1.20;;
71048;SDS011;58704;53.358;-6.238;2023-12-20T06:11:41;6.93;;;1.40;;
71048;SDS011;58704;53.358;-6.238;2023-12-20T06:14:06;8.00;;;1.10;;
71048;SDS011;58704;53.358;-6.238;2023-12-20T06:16:32;9.10;;;1.60;;
71048;SDS011;58704;53.358;-6.238;2023-12-20T06:18:57;8.60;;;1.40;;
71048;SDS011;58704;53.358;-6.238;2023-12-20T06:21:22;9.13;;;1.13;;
71048;SDS011;58704;53.358;-6.238;2023-12-20T06:23:47;9.07;;;1.67;;
71048;SDS011;58704;53.358;-6.238;2023-12-20T06:26:13;9.67;;;1.33;;
71048;SDS011;58704;53.358;-6.238;2023-12-20T06:28:38;7.23;;;1.30;;
71048;SDS011;58704;53.358;-6.238;2023-12-20T06:31:03;10.13;;;1.30;;
71048;SDS011;58704;53.358;-6.238;2023-12-20T06:33:29;6.93;;;1.47;;
71048;SDS011;58704;53.358;-6.238;2023-12-20T06:35:56;5.85;;;1.10;;
71048;SDS011;58704;53.358;-6.238;2023-12-20T06:38:22;10.93;;;1.60;;
71048;SDS011;58704;53.358;-6.238;2023-12-20T06:40:47;11.97;;;2.53;;
71048;SDS011;58704;53.358;-6.238;2023-12-20T06:43:13;10.20;;;1.90;;
71048;SDS011;58704;53.358;-6.238;2023-12-20T06:45:38;6.75;;;1.85;;
71048;SDS011;58704;53.358;-6.238;2023-12-20T06:48:04;6.70;;;1.53;;
71048;SDS011;58704;53.358;-6.238;2023-12-20T06:50:29;9.53;;;2.00;;
71048;SDS011;58704;53.358;-6.238;2023-12-20T06:52:54;11.90;;;2.00;;
71048;SDS011;58704;53.358;-6.238;2023-12-20T06:55:19;8.10;;;1.80;;
71048;SDS011;58704;53.358;-6.238;2023-12-20T06:57:45;10.63;;;2.13;;
71048;SDS011;58704;53.358;-6.238;2023-12-20T07:00:13;8.90;;;1.80;;
71048;SDS011;58704;53.358;-6.238;2023-12-20T07:02:38;6.75;;;1.55;;
71048;SDS011;58704;53.358;-6.238;2023-12-20T07:05:03;8.33;;;1.73;;
71048;SDS011;58704;53.358;-6.238;2023-12-20T07:07:29;7.95;;;1.83;;
71048;SDS011;58704;53.358;-6.238;2023-12-20T07:09:54;7.37;;;1.00;;
71048;SDS011;58704;53.358;-6.238;2023-12-20T07:12:20;6.97;;;1.67;;
71048;SDS011;58704;53.358;-6.238;2023-12-20T07:14:45;11.10;;;1.63;;
71048;SDS011;58704;53.358;-6.238;2023-12-20T07:17:11;5.07;;;1.60;;
71048;SDS011;58704;53.358;-6.238;2023-12-20T07:19:38;8.02;;;1.55;;
71048;SDS011;58704;53.358;-6.238;2023-12-20T07:22:04;8.23;;;1.43;;
71048;SDS011;58704;53.358;-6.238;2023-12-20T07:24:29;11.10;;;1.70;;
71048;SDS011;58704;53.358;-6.238;2023-12-20T07:26:54;10.53;;;2.37;;
71048;SDS011;58704;53.358;-6.238;2023-12-20T07:29:19;3.93;;;1.40;;
71048;SDS011;58704;53.358;-6.238;2023-12-20T07:31:45;5.10;;;1.40;;
71048;SDS011;58704;53.358;-6.238;2023-12-20T07:34:10;6.57;;;1.77;;
71048;SDS011;58704;53.358;-6.238;2023-12-20T07:36:35;4.77;;;1.57;;
71048;SDS011;58704;53.358;-6.238;2023-12-20T07:39:00;7.63;;;1.53;;
71048;SDS011;58704;53.358;-6.238;2023-12-20T07:41:25;5.70;;;1.77;;
71048;SDS011;58704;53.358;-6.238;2023-12-20T07:43:51;4.67;;;1.90;;
71048;SDS011;58704;53.358;-6.238;2023-12-20T07:46:16;7.20;;;2.07;;
71048;SDS011;58704;53.358;-6.238;2023-12-20T07:48:41;4.07;;;1.23;;
71048;SDS011;58704;53.358;-6.238;2023-12-20T07:51:07;4.68;;;1.63;;
71048;SDS011;58704;53.358;-6.238;2023-12-20T07:53:34;7.13;;;2.07;;
71048;SDS011;58704;53.358;-6.238;2023-12-20T07:56:00;8.05;;;1.83;;
71048;SDS011;58704;53.358;-6.238;2023-12-20T07:58:25;13.93;;;2.73;;
71048;SDS011;58704;53.358;-6.238;2023-12-20T08:00:50;9.20;;;1.73;;
71048;SDS011;58704;53.358;-6.238;2023-12-20T08:03:16;6.83;;;1.73;;
71048;SDS011;58704;53.358;-6.238;2023-12-20T08:05:41;14.13;;;2.37;;
71048;SDS011;58704;53.358;-6.238;2023-12-20T08:08:06;13.53;;;2.70;;
71048;SDS011;58704;53.358;-6.238;2023-12-20T08:10:32;13.60;;;2.30;;
71048;SDS011;58704;53.358;-6.238;2023-12-20T08:12:57;11.70;;;2.27;;
71048;SDS011;58704;53.358;-6.238;2023-12-20T08:15:22;10.27;;;2.00;;
71048;SDS011;58704;53.358;-6.238;2023-12-20T08:17:48;16.45;;;2.20;;
71048;SDS011;58704;53.358;-6.238;2023-12-20T08:20:15;16.40;;;2.50;;
71048;SDS011;58704;53.358;-6.238;2023-12-20T08:22:41;9.57;;;1.60;;
71048;SDS011;58704;53.358;-6.238;2023-12-20T08:25:06;16.00;;;2.03;;
71048;SDS011;58704;53.358;-6.238;2023-12-20T08:27:31;20.83;;;3.00;;
71048;SDS011;58704;53.358;-6.238;2023-12-20T08:29:57;9.87;;;2.77;;
71048;SDS011;58704;53.358;-6.238;2023-12-20T08:32:24;24.00;;;4.63;;
71048;SDS011;58704;53.358;-6.238;2023-12-20T08:34:49;12.43;;;2.47;;
71048;SDS011;58704;53.358;-6.238;2023-12-20T08:37:15;14.70;;;2.37;;
71048;SDS011;58704;53.358;-6.238;2023-12-20T08:39:40;11.53;;;2.00;;
71048;SDS011;58704;53.358;-6.238;2023-12-20T08:42:06;7.28;;;1.92;;
71048;SDS011;58704;53.358;-6.238;2023-12-20T08:44:31;11.50;;;1.83;;
71048;SDS011;58704;53.358;-6.238;2023-12-20T08:46:56;10.07;;;1.80;;
71048;SDS011;58704;53.358;-6.238;2023-12-20T08:49:22;20.17;;;4.30;;
71048;SDS011;58704;53.358;-6.238;2023-12-20T08:51:59;12.90;;;3.00;;
71048;SDS011;58704;53.358;-6.238;2023-12-20T08:54:31;17.13;;;3.05;;
71048;SDS011;58704;53.358;-6.238;2023-12-20T08:56:58;12.18;;;2.65;;
71048;SDS011;58704;53.358;-6.238;2023-12-20T08:59:24;13.13;;;2.53;;
71048;SDS011;58704;53.358;-6.238;2023-12-20T09:01:49;13.87;;;2.83;;
71048;SDS011;58704;53.358;-6.238;2023-12-20T09:04:19;9.80;;;2.28;;
71048;SDS011;58704;53.358;-6.238;2023-12-20T09:06:50;12.60;;;2.13;;
71048;SDS011;58704;53.358;-6.238;2023-12-20T09:09:19;17.80;;;2.95;;
71048;SDS011;58704;53.358;-6.238;2023-12-20T09:11:45;14.90;;;2.30;;
71048;SDS011;58704;53.358;-6.238;2023-12-20T09:14:13;17.80;;;2.92;;
71048;SDS011;58704;53.358;-6.238;2023-12-20T09:16:38;16.23;;;2.47;;
71048;SDS011;58704;53.358;-6.238;2023-12-20T09:19:03;19.27;;;2.83;;
71048;SDS011;58704;53.358;-6.238;2023-12-20T09:21:28;19.10;;;3.40;;
71048;SDS011;58704;53.358;-6.238;2023-12-20T09:23:54;16.03;;;2.80;;
71048;SDS011;58704;53.358;-6.238;2023-12-20T09:26:19;19.23;;;3.73;;
71048;SDS011;58704;53.358;-6.238;2023-12-20T09:28:45;10.25;;;2.47;;
71048;SDS011;58704;53.358;-6.238;2023-12-20T09:31:11;19.67;;;2.23;;
71048;SDS011;58704;53.358;-6.238;2023-12-20T09:33:36;19.13;;;3.17;;
71048;SDS011;58704;53.358;-6.238;2023-12-20T09:36:07;13.77;;;2.70;;
71048;SDS011;58704;53.358;-6.238;2023-12-20T09:38:32;18.30;;;3.25;;
71048;SDS011;58704;53.358;-6.238;2023-12-20T09:40:59;19.52;;;3.20;;
71048;SDS011;58704;53.358;-6.238;2023-12-20T09:43:26;24.55;;;3.45;;
71048;SDS011;58704;53.358;-6.238;2023-12-20T09:45:53;18.30;;;2.92;;
71048;SDS011;58704;53.358;-6.238;2023-12-20T09:48:18;18.90;;;3.87;;
71048;SDS011;58704;53.358;-6.238;2023-12-20T09:50:44;15.00;;;3.45;;
71048;SDS011;58704;53.358;-6.238;2023-12-20T09:53:11;21.23;;;3.27;;
71048;SDS011;58704;53.358;-6.238;2023-12-20T09:55:39;16.45;;;3.22;;
71048;SDS011;58704;53.358;-6.238;2023-12-20T09:58:05;17.60;;;3.75;;
71048;SDS011;58704;53.358;-6.238;2023-12-20T10:00:32;19.20;;;3.53;;
71048;SDS011;58704;53.358;-6.238;2023-12-20T10:02:58;20.70;;;3.03;;
71048;SDS011;58704;53.358;-6.238;2023-12-20T10:07:52;18.27;;;3.08;;
71048;SDS011;58704;53.358;-6.238;2023-12-20T10:10:18;17.03;;;3.13;;
71048;SDS011;58704;53.358;-6.238;2023-12-20T10:13:03;19.83;;;2.92;;
71048;SDS011;58704;53.358;-6.238;2023-12-20T10:15:29;17.73;;;3.22;;
71048;SDS011;58704;53.358;-6.238;2023-12-20T10:17:54;16.17;;;3.50;;
71048;SDS011;58704;53.358;-6.238;2023-12-20T10:20:20;14.13;;;3.10;;
71048;SDS011;58704;53.358;-6.238;2023-12-20T10:22:45;15.32;;;2.88;;
71048;SDS011;58704;53.358;-6.238;2023-12-20T10:25:14;17.20;;;3.23;;
71048;SDS011;58704;53.358;-6.238;2023-12-20T10:27:39;15.73;;;2.55;;
71048;SDS011;58704;53.358;-6.238;2023-12-20T10:30:04;15.63;;;3.27;;
71048;SDS011;58704;53.358;-6.238;2023-12-20T10:32:30;15.67;;;3.30;;
71048;SDS011;58704;53.358;-6.238;2023-12-20T10:34:56;17.63;;;3.67;;
71048;SDS011;58704;53.358;-6.238;2023-12-20T10:37:22;22.70;;;3.60;;
71048;SDS011;58704;53.358;-6.238;2023-12-20T10:39:49;25.13;;;5.10;;
71048;SDS011;58704;53.358;-6.238;2023-12-20T10:42:15;26.25;;;3.30;;
71048;SDS011;58704;53.358;-6.238;2023-12-20T10:44:41;21.60;;;3.93;;
71048;SDS011;58704;53.358;-6.238;2023-12-20T10:47:06;18.60;;;4.35;;
71048;SDS011;58704;53.358;-6.238;2023-12-20T10:49:31;23.77;;;3.50;;
71048;SDS011;58704;53.358;-6.238;2023-12-20T10:51:59;35.07;;;3.97;;
71048;SDS011;58704;53.358;-6.238;2023-12-20T10:54:30;25.30;;;3.53;;
71048;SDS011;58704;53.358;-6.238;2023-12-20T10:56:55;23.88;;;4.28;;
71048;SDS011;58704;53.358;-6.238;2023-12-20T10:59:22;37.05;;;4.50;;
71048;SDS011;58704;53.358;-6.238;2023-12-20T11:01:48;26.90;;;3.90;;
71048;SDS011;58704;53.358;-6.238;2023-12-20T11:04:15;28.75;;;4.85;;
71048;SDS011;58704;53.358;-6.238;2023-12-20T11:06:54;24.40;;;4.60;;
71048;SDS011;58704;53.358;-6.238;2023-12-20T11:09:29;19.95;;;3.60;;
71048;SDS011;58704;53.358;-6.238;2023-12-20T11:14:45;26.60;;;4.30;;
71048;SDS011;58704;53.358;-6.238;2023-12-20T11:17:10;27.50;;;3.87;;
71048;SDS011;58704;53.358;-6.238;2023-12-20T11:22:21;25.98;;;4.00;;
71048;SDS011;58704;53.358;-6.238;2023-12-20T11:24:47;27.90;;;4.38;;
71048;SDS011;58704;53.358;-6.238;2023-12-20T11:27:13;23.33;;;4.07;;
71048;SDS011;58704;53.358;-6.238;2023-12-20T11:29:38;31.73;;;4.75;;
71048;SDS011;58704;53.358;-6.238;2023-12-20T11:32:50;29.52;;;4.78;;
71048;SDS011;58704;53.358;-6.238;2023-12-20T11:34:57;28.58;;;4.40;;
71048;SDS011;58704;53.358;-6.238;2023-12-20T11:37:28;24.25;;;3.55;;
71048;SDS011;58704;53.358;-6.238;2023-12-20T11:40:00;24.20;;;3.30;;
71048;SDS011;58704;53.358;-6.238;2023-12-20T11:42:25;20.70;;;4.00;;
71048;SDS011;58704;53.358;-6.238;2023-12-20T11:44:50;20.60;;;4.43;;
71048;SDS011;58704;53.358;-6.238;2023-12-20T11:47:16;24.00;;;4.20;;
71048;SDS011;58704;53.358;-6.238;2023-12-20T11:49:44;26.50;;;4.47;;
71048;SDS011;58704;53.358;-6.238;2023-12-20T11:52:11;23.80;;;3.93;;
71048;SDS011;58704;53.358;-6.238;2023-12-20T11:54:36;31.85;;;5.32;;
71048;SDS011;58704;53.358;-6.238;2023-12-20T11:57:02;31.37;;;6.03;;
71048;SDS011;58704;53.358;-6.238;2023-12-20T11:59:27;31.47;;;4.83;;
71048;SDS011;58704;53.358;-6.238;2023-12-20T12:01:52;32.33;;;4.47;;
71048;SDS011;58704;53.358;-6.238;2023-12-20T12:04:20;38.60;;;6.13;;
71048;SDS011;58704;53.358;-6.238;2023-12-20T12:06:46;30.52;;;5.07;;
71048;SDS011;58704;53.358;-6.238;2023-12-20T12:09:11;28.83;;;4.80;;
71048;SDS011;58704;53.358;-6.238;2023-12-20T12:11:36;27.40;;;4.33;;
71048;SDS011;58704;53.358;-6.238;2023-12-20T12:14:02;34.97;;;5.95;;
71048;SDS011;58704;53.358;-6.238;2023-12-20T12:16:27;24.53;;;4.27;;
71048;SDS011;58704;53.358;-6.238;2023-12-20T12:18:56;35.03;;;4.47;;
71048;SDS011;58704;53.358;-6.238;2023-12-20T12:21:22;31.15;;;3.90;;
71048;SDS011;58704;53.358;-6.238;2023-12-20T12:23:47;29.63;;;4.37;;
71048;SDS011;58704;53.358;-6.238;2023-12-20T12:26:13;34.80;;;5.77;;
71048;SDS011;58704;53.358;-6.238;2023-12-20T12:28:41;32.73;;;5.30;;
71048;SDS011;58704;53.358;-6.238;2023-12-20T12:31:07;29.85;;;4.63;;
71048;SDS011;58704;53.358;-6.238;2023-12-20T12:33:32;32.17;;;4.60;;
71048;SDS011;58704;53.358;-6.238;2023-12-20T12:35:58;27.77;;;4.07;;
71048;SDS011;58704;53.358;-6.238;2023-12-20T12:38:24;32.23;;;4.30;;
71048;SDS011;58704;53.358;-6.238;2023-12-20T12:40:50;31.10;;;4.93;;
71048;SDS011;58704;53.358;-6.238;2023-12-20T12:43:18;29.43;;;4.47;;
71048;SDS011;58704;53.358;-6.238;2023-12-20T12:45:43;30.27;;;4.72;;
71048;SDS011;58704;53.358;-6.238;2023-12-20T12:48:08;30.50;;;4.60;;
71048;SDS011;58704;53.358;-6.238;2023-12-20T12:50:34;24.40;;;4.93;;
71048;SDS011;58704;53.358;-6.238;2023-12-20T12:52:59;28.23;;;5.27;;
71048;SDS011;58704;53.358;-6.238;2023-12-20T12:55:25;29.93;;;4.43;;
71048;SDS011;58704;53.358;-6.238;2023-12-20T12:57:50;29.13;;;5.27;;
71048;SDS011;58704;53.358;-6.238;2023-12-20T13:00:15;33.07;;;4.43;;
71048;SDS011;58704;53.358;-6.238;2023-12-20T13:02:41;29.33;;;4.60;;
71048;SDS011;58704;53.358;-6.238;2023-12-20T13:05:07;26.27;;;4.40;;
71048;SDS011;58704;53.358;-6.238;2023-12-20T13:07:33;30.03;;;3.70;;
71048;SDS011;58704;53.358;-6.238;2023-12-20T13:09:58;20.80;;;4.30;;
71048;SDS011;58704;53.358;-6.238;2023-12-20T13:12:23;29.93;;;4.63;;
71048;SDS011;58704;53.358;-6.238;2023-12-20T13:14:48;27.60;;;5.13;;
71048;SDS011;58704;53.358;-6.238;2023-12-20T13:17:14;27.97;;;6.10;;
71048;SDS011;58704;53.358;-6.238;2023-12-20T13:19:40;26.52;;;3.78;;
71048;SDS011;58704;53.358;-6.238;2023-12-20T13:22:05;23.10;;;5.07;;
71048;SDS011;58704;53.358;-6.238;2023-12-20T13:24:31;21.03;;;4.13;;
71048;SDS011;58704;53.358;-6.238;2023-12-20T13:26:57;24.23;;;4.95;;
71048;SDS011;58704;53.358;-6.238;2023-12-20T13:29:22;21.00;;;3.63;;
71048;SDS011;58704;53.358;-6.238;2023-12-20T13:31:48;22.97;;;4.63;;
71048;SDS011;58704;53.358;-6.238;2023-12-20T13:34:14;22.65;;;4.13;;
71048;SDS011;58704;53.358;-6.238;2023-12-20T13:36:39;26.80;;;4.57;;
71048;SDS011;58704;53.358;-6.238;2023-12-20T13:39:04;20.87;;;4.00;;
71048;SDS011;58704;53.358;-6.238;2023-12-20T13:41:30;17.88;;;4.60;;
71048;SDS011;58704;53.358;-6.238;2023-12-20T13:43:55;27.70;;;4.60;;
71048;SDS011;58704;53.358;-6.238;2023-12-20T13:46:20;23.30;;;4.87;;
71048;SDS011;58704;53.358;-6.238;2023-12-20T13:48:46;36.83;;;5.83;;
71048;SDS011;58704;53.358;-6.238;2023-12-20T13:51:11;21.57;;;5.37;;
71048;SDS011;58704;53.358;-6.238;2023-12-20T13:53:36;26.33;;;5.57;;
71048;SDS011;58704;53.358;-6.238;2023-12-20T13:56:03;24.38;;;4.10;;
71048;SDS011;58704;53.358;-6.238;2023-12-20T13:58:28;25.63;;;4.57;;
71048;SDS011;58704;53.358;-6.238;2023-12-20T14:00:54;33.50;;;7.33;;
71048;SDS011;58704;53.358;-6.238;2023-12-20T14:03:19;25.53;;;5.87;;
71048;SDS011;58704;53.358;-6.238;2023-12-20T14:19:18;29.60;;;5.28;;
71048;SDS011;58704;53.358;-6.238;2023-12-20T14:21:44;20.10;;;5.05;;
71048;SDS011;58704;53.358;-6.238;2023-12-20T14:24:12;27.55;;;4.25;;
71048;SDS011;58704;53.358;-6.238;2023-12-20T14:45:15;14.20;;;2.65;;
71048;SDS011;58704;53.358;-6.238;2023-12-20T14:47:43;14.82;;;2.80;;
71048;SDS011;58704;53.358;-6.238;2023-12-20T14:50:08;16.40;;;3.30;;
71048;SDS011;58704;53.358;-6.238;2023-12-20T14:52:34;12.63;;;2.83;;
71048;SDS011;58704;53.358;-6.238;2023-12-20T14:54:59;10.47;;;2.70;;
71048;SDS011;58704;53.358;-6.238;2023-12-20T14:57:25;16.23;;;3.07;;